Time;durP1;ratioP1;P1;durP2;ratioP2;P2;SDS_P1;SDS_P2;PMS_P1;PMS_P2;Temp;Humidity;BMP_temperature;BMP_pressure;BME280_temperature;BME280_humidity;BME280_pressure;Samples;Min_cycle;Max_cycle;Signal;HPM_P1;HPM_P2
2022/09/24 00:01:14;;;;;;;13.80;5.80;;;;;;;;;;7371457;19;20038;-81
2022/09/24 00:03:40;;;;;;;10.48;6.20;;;;;;;;;;7366642;19;20593;-81
2022/09/24 00:06:06;;;;;;;11.23;6.78;;;;;;;;;;7365258;19;20002;-82
2022/09/24 00:08:31;;;;;;;11.30;6.53;;;;;;;;;;7364807;19;20052;-82
2022/09/24 00:10:59;;;;;;;11.95;6.90;;;;;;;;;;7367410;19;20579;-81
2022/09/24 00:13:24;;;;;;;12.05;7.25;;;;;;;;;;7369761;19;20033;-82
2022/09/24 00:15:50;;;;;;;11.32;7.28;;;;;;;;;;7375893;19;20362;-82
2022/09/24 00:18:16;;;;;;;10.98;6.22;;;;;;;;;;7361599;19;20015;-80
2022/09/24 00:20:41;;;;;;;9.65;5.90;;;;;;;;;;7371018;19;20021;-81
2022/09/24 00:23:07;;;;;;;11.88;7.07;;;;;;;;;;7313682;19;20010;-80
2022/09/24 00:28:17;;;;;;;;;;;;;;;;;;7369701;19;20038;-80
2022/09/24 00:30:43;;;;;;;12.75;6.25;;;;;;;;;;7374188;19;19922;-81
2022/09/24 00:33:08;;;;;;;12.60;6.93;;;;;;;;;;7374958;19;20487;-81
2022/09/24 00:35:35;;;;;;;12.30;7.10;;;;;;;;;;7377136;19;20007;-81
2022/09/24 00:38:00;;;;;;;10.93;5.53;;;;;;;;;;7359786;19;20124;-82
2022/09/24 00:40:29;;;;;;;11.40;5.75;;;;;;;;;;7371781;19;20082;-79
2022/09/24 00:42:54;;;;;;;13.88;6.53;;;;;;;;;;7373920;19;20006;-79
2022/09/24 00:45:19;;;;;;;12.85;6.75;;;;;;;;;;7365635;19;20196;-79
2022/09/24 00:47:44;;;;;;;9.83;6.17;;;;;;;;;;7363865;19;20033;-78
2022/09/24 00:50:13;;;;;;;11.25;6.38;;;;;;;;;;7365222;19;20913;-81
2022/09/24 00:52:43;;;;;;;10.05;5.95;;;;;;;;;;7365194;19;20010;-81
2022/09/24 00:55:08;;;;;;;12.10;6.25;;;;;;;;;;7367885;19;20014;-81
2022/09/24 00:57:34;;;;;;;12.70;6.25;;;;;;;;;;7365153;19;20346;-79
2022/09/24 00:59:59;;;;;;;15.90;6.10;;;;;;;;;;7374641;19;20640;-81
2022/09/24 01:02:24;;;;;;;11.77;6.60;;;;;;;;;;7350078;19;20002;-81
2022/09/24 01:04:49;;;;;;;11.98;5.95;;;;;;;;;;7371619;19;20402;-81
2022/09/24 01:07:15;;;;;;;11.68;5.70;;;;;;;;;;7362034;19;20019;-80
2022/09/24 01:09:40;;;;;;;9.00;5.65;;;;;;;;;;7372774;19;20006;-80
2022/09/24 01:12:13;;;;;;;9.32;5.60;;;;;;;;;;7347920;19;20865;-81
2022/09/24 01:14:42;;;;;;;9.32;5.50;;;;;;;;;;7369114;19;20125;-78
2022/09/24 01:17:10;;;;;;;11.88;6.18;;;;;;;;;;7361911;19;20549;-83
2022/09/24 01:19:38;;;;;;;11.07;5.70;;;;;;;;;;7353399;19;20015;-81
2022/09/24 01:22:08;;;;;;;11.20;5.82;;;;;;;;;;7364508;19;20036;-82
2022/09/24 01:24:53;;;;;;;11.32;6.53;;;;;;;;;;7371613;19;20014;-79
2022/09/24 01:27:20;;;;;;;10.63;5.90;;;;;;;;;;7364879;19;20021;-82
2022/09/24 01:29:57;;;;;;;10.82;6.50;;;;;;;;;;7335356;19;20010;-79
2022/09/24 01:32:43;;;;;;;10.00;6.28;;;;;;;;;;7356588;19;20096;-82
2022/09/24 01:35:12;;;;;;;10.65;5.90;;;;;;;;;;7371348;19;20025;-81
2022/09/24 01:37:38;;;;;;;10.13;6.43;;;;;;;;;;7333925;19;20010;-79
2022/09/24 01:40:04;;;;;;;9.13;6.10;;;;;;;;;;7368002;19;20564;-82
2022/09/24 01:42:30;;;;;;;13.10;6.15;;;;;;;;;;7368786;19;20048;-83
2022/09/24 01:44:57;;;;;;;11.52;6.72;;;;;;;;;;7368366;19;20100;-81
2022/09/24 01:47:28;;;;;;;11.13;5.93;;;;;;;;;;7361813;19;20010;-79
2022/09/24 01:49:53;;;;;;;11.95;6.68;;;;;;;;;;7369232;19;20011;-80
2022/09/24 01:52:21;;;;;;;10.23;5.50;;;;;;;;;;7363784;19;19999;-79
2022/09/24 01:54:50;;;;;;;9.77;5.88;;;;;;;;;;7364703;19;20013;-82
2022/09/24 01:57:23;;;;;;;10.57;5.57;;;;;;;;;;7366895;19;20501;-82
2022/09/24 01:59:54;;;;;;;13.45;5.95;;;;;;;;;;7360554;19;20573;-80
2022/09/24 02:02:26;;;;;;;8.50;5.38;;;;;;;;;;7370939;19;20032;-82
2022/09/24 02:04:55;;;;;;;8.18;5.15;;;;;;;;;;7359776;19;20010;-81
2022/09/24 02:07:26;;;;;;;9.20;5.43;;;;;;;;;;7360127;19;20033;-82
2022/09/24 02:09:51;;;;;;;8.10;5.10;;;;;;;;;;7370073;19;20013;-80
2022/09/24 02:12:22;;;;;;;10.40;4.95;;;;;;;;;;7369899;19;20353;-80
2022/09/24 02:14:53;;;;;;;9.85;5.45;;;;;;;;;;7371402;19;20010;-80
2022/09/24 02:17:19;;;;;;;9.68;5.22;;;;;;;;;;7363294;19;20526;-78
2022/09/24 02:19:45;;;;;;;7.28;4.72;;;;;;;;;;7372657;19;20130;-79
2022/09/24 02:22:11;;;;;;;12.07;5.07;;;;;;;;;;7353342;19;20086;-83
2022/09/24 02:24:36;;;;;;;13.23;5.25;;;;;;;;;;7367944;19;20014;-80
2022/09/24 02:27:01;;;;;;;9.07;4.88;;;;;;;;;;7360789;19;20015;-80
2022/09/24 02:29:27;;;;;;;15.27;5.10;;;;;;;;;;7362623;19;20006;-83
2022/09/24 02:31:54;;;;;;;10.23;5.68;;;;;;;;;;7367861;19;20014;-81
2022/09/24 02:34:23;;;;;;;9.55;5.50;;;;;;;;;;7366201;19;20042;-81
2022/09/24 02:36:50;;;;;;;11.10;4.88;;;;;;;;;;7353825;19;20367;-83
2022/09/24 02:39:16;;;;;;;8.30;4.95;;;;;;;;;;7363387;19;20033;-79
2022/09/24 02:41:41;;;;;;;10.48;5.05;;;;;;;;;;7361584;19;20015;-80
2022/09/24 02:44:06;;;;;;;8.02;4.78;;;;;;;;;;7369430;19;20471;-80
2022/09/24 02:46:32;;;;;;;8.70;5.35;;;;;;;;;;7355410;19;20031;-82
2022/09/24 02:48:57;;;;;;;11.73;5.18;;;;;;;;;;7369219;19;20718;-81
2022/09/24 02:51:22;;;;;;;9.40;4.73;;;;;;;;;;7364307;19;20576;-82
2022/09/24 02:53:47;;;;;;;9.55;5.20;;;;;;;;;;7371035;19;20261;-81
2022/09/24 02:56:13;;;;;;;8.70;5.50;;;;;;;;;;7368634;19;20489;-81
2022/09/24 02:58:38;;;;;;;10.00;5.40;;;;;;;;;;7370504;19;20019;-80
2022/09/24 03:01:04;;;;;;;9.60;5.15;;;;;;;;;;7362137;19;20025;-82
2022/09/24 03:03:29;;;;;;;8.88;5.10;;;;;;;;;;7340255;19;20028;-81
2022/09/24 03:05:54;;;;;;;8.45;5.13;;;;;;;;;;7368380;19;20078;-81
2022/09/24 03:08:20;;;;;;;8.02;4.90;;;;;;;;;;7352334;19;20015;-80
2022/09/24 03:10:46;;;;;;;11.15;5.35;;;;;;;;;;7365625;19;20010;-81
2022/09/24 03:13:11;;;;;;;10.52;5.60;;;;;;;;;;7371406;19;20901;-82
2022/09/24 03:15:36;;;;;;;10.65;5.35;;;;;;;;;;7370249;19;20010;-80
2022/09/24 03:18:02;;;;;;;9.98;5.00;;;;;;;;;;7377290;19;20015;-82
2022/09/24 03:20:27;;;;;;;10.93;5.43;;;;;;;;;;7376239;19;20006;-81
2022/09/24 03:22:52;;;;;;;10.27;5.43;;;;;;;;;;7369606;19;21023;-80
2022/09/24 03:25:18;;;;;;;10.27;5.43;;;;;;;;;;7373781;19;20018;-82
2022/09/24 03:27:43;;;;;;;9.63;4.95;;;;;;;;;;7369682;19;20066;-81
2022/09/24 03:32:53;;;;;;;9.15;5.38;;;;;;;;;;7366590;19;20086;-82
2022/09/24 03:35:19;;;;;;;11.10;5.93;;;;;;;;;;7370247;19;20573;-82
2022/09/24 03:37:45;;;;;;;9.50;5.60;;;;;;;;;;7351652;19;20575;-81
2022/09/24 03:40:10;;;;;;;9.05;5.50;;;;;;;;;;7368502;19;20356;-82
2022/09/24 03:42:35;;;;;;;11.30;5.43;;;;;;;;;;7369626;19;20038;-81
2022/09/24 03:45:01;;;;;;;9.27;5.50;;;;;;;;;;7372512;19;20468;-80
2022/09/24 03:47:26;;;;;;;7.87;5.30;;;;;;;;;;7367657;19;20608;-82
2022/09/24 03:49:52;;;;;;;10.50;5.00;;;;;;;;;;7370697;19;20429;-80
2022/09/24 03:52:17;;;;;;;8.65;4.97;;;;;;;;;;7371984;19;20006;-80
2022/09/24 03:54:42;;;;;;;10.40;5.35;;;;;;;;;;7376618;19;20619;-81
2022/09/24 03:57:07;;;;;;;10.50;6.00;;;;;;;;;;7366015;19;20015;-80
2022/09/24 03:59:33;;;;;;;10.27;5.80;;;;;;;;;;7370615;19;20882;-82
2022/09/24 04:01:58;;;;;;;10.50;4.83;;;;;;;;;;7371044;19;20724;-80
2022/09/24 04:04:23;;;;;;;9.35;5.45;;;;;;;;;;7373604;19;20265;-81
2022/09/24 04:06:48;;;;;;;9.27;5.23;;;;;;;;;;7369930;19;20011;-80
2022/09/24 04:09:14;;;;;;;8.43;4.85;;;;;;;;;;7375268;19;20259;-82
2022/09/24 04:11:39;;;;;;;9.48;5.32;;;;;;;;;;7372939;19;20359;-80
2022/09/24 04:14:04;;;;;;;11.93;5.93;;;;;;;;;;7365546;19;20787;-80
2022/09/24 04:16:29;;;;;;;10.25;5.90;;;;;;;;;;7376119;19;20251;-82
2022/09/24 04:18:54;;;;;;;8.67;4.80;;;;;;;;;;7363997;19;20028;-82
2022/09/24 04:21:20;;;;;;;9.90;5.50;;;;;;;;;;7360154;19;21317;-81
2022/09/24 04:23:45;;;;;;;7.90;4.82;;;;;;;;;;7375275;19;20490;-79
2022/09/24 04:26:11;;;;;;;15.45;5.75;;;;;;;;;;7370912;19;20014;-80
2022/09/24 04:28:36;;;;;;;7.40;4.90;;;;;;;;;;7376540;19;20030;-81
2022/09/24 04:31:01;;;;;;;12.13;5.88;;;;;;;;;;7366118;19;20010;-82
2022/09/24 04:33:26;;;;;;;7.68;5.05;;;;;;;;;;7365215;19;20150;-83
2022/09/24 04:35:52;;;;;;;11.43;5.80;;;;;;;;;;7375291;19;20130;-81
2022/09/24 04:38:18;;;;;;;10.52;5.65;;;;;;;;;;7369834;19;20295;-79
2022/09/24 04:40:46;;;;;;;9.10;5.90;;;;;;;;;;7357416;19;20577;-81
2022/09/24 04:43:11;;;;;;;9.93;5.93;;;;;;;;;;7361636;19;20015;-80
2022/09/24 04:45:37;;;;;;;8.00;5.60;;;;;;;;;;7372910;19;20010;-79
2022/09/24 04:48:02;;;;;;;9.68;5.68;;;;;;;;;;7361181;19;20302;-79
2022/09/24 04:50:28;;;;;;;10.48;5.78;;;;;;;;;;7369902;19;20366;-79
2022/09/24 04:52:54;;;;;;;14.30;5.93;;;;;;;;;;7355440;19;20461;-81
2022/09/24 04:55:19;;;;;;;8.40;5.43;;;;;;;;;;7363392;19;20009;-81
2022/09/24 04:57:45;;;;;;;10.20;5.65;;;;;;;;;;7365849;19;20458;-80
2022/09/24 05:00:14;;;;;;;9.82;5.85;;;;;;;;;;7361114;19;20031;-81
2022/09/24 05:02:40;;;;;;;7.97;5.22;;;;;;;;;;7352765;19;20006;-81
2022/09/24 05:05:05;;;;;;;9.50;5.55;;;;;;;;;;7366997;19;20029;-81
2022/09/24 05:07:30;;;;;;;8.02;5.22;;;;;;;;;;7366067;19;20006;-81
2022/09/24 05:09:56;;;;;;;13.23;5.63;;;;;;;;;;7368975;19;20763;-81
2022/09/24 05:12:21;;;;;;;11.07;5.68;;;;;;;;;;7368409;19;20327;-79
2022/09/24 05:14:47;;;;;;;10.13;6.43;;;;;;;;;;7361541;19;19998;-80
2022/09/24 05:17:12;;;;;;;10.98;5.95;;;;;;;;;;7358564;19;20393;-81
2022/09/24 05:19:38;;;;;;;12.20;6.63;;;;;;;;;;7367812;19;20018;-80
2022/09/24 05:22:03;;;;;;;14.40;7.03;;;;;;;;;;7357357;19;20014;-81
2022/09/24 05:24:28;;;;;;;10.95;5.78;;;;;;;;;;7359924;19;20400;-81
2022/09/24 05:27:09;;;;;;;12.05;6.80;;;;;;;;;;7368559;19;20017;-80
2022/09/24 05:29:37;;;;;;;12.85;6.78;;;;;;;;;;7360981;19;20421;-80
2022/09/24 05:32:04;;;;;;;10.00;6.78;;;;;;;;;;7325066;19;20602;-80
2022/09/24 05:34:29;;;;;;;10.45;6.22;;;;;;;;;;7348470;19;20010;-80
2022/09/24 05:36:55;;;;;;;12.13;6.50;;;;;;;;;;7360713;19;20007;-81
2022/09/24 05:39:20;;;;;;;9.07;6.32;;;;;;;;;;7367590;19;20537;-79
2022/09/24 05:41:45;;;;;;;11.37;6.17;;;;;;;;;;7351525;19;20010;-80
2022/09/24 05:44:10;;;;;;;13.18;9.02;;;;;;;;;;7359050;19;20266;-80
2022/09/24 05:46:36;;;;;;;11.67;7.80;;;;;;;;;;7366301;19;20086;-80
2022/09/24 05:49:01;;;;;;;11.98;7.65;;;;;;;;;;7350355;19;20267;-81
2022/09/24 05:51:26;;;;;;;14.38;7.47;;;;;;;;;;7312244;19;20326;-80
2022/09/24 05:53:51;;;;;;;14.75;9.13;;;;;;;;;;7347087;19;21178;-80
2022/09/24 05:56:17;;;;;;;16.02;8.65;;;;;;;;;;7371182;19;20010;-80
2022/09/24 05:58:42;;;;;;;15.07;8.38;;;;;;;;;;7357732;19;20014;-79
2022/09/24 06:01:07;;;;;;;10.40;7.53;;;;;;;;;;7360842;19;22239;-81
2022/09/24 06:03:32;;;;;;;12.90;8.37;;;;;;;;;;7353321;19;20624;-80
2022/09/24 06:06:01;;;;;;;14.50;9.13;;;;;;;;;;7363317;19;20331;-82
2022/09/24 06:08:27;;;;;;;16.50;8.95;;;;;;;;;;7361247;19;20259;-81
2022/09/24 06:10:53;;;;;;;13.90;9.07;;;;;;;;;;7368581;19;20443;-80
2022/09/24 06:13:19;;;;;;;11.35;7.63;;;;;;;;;;7358635;19;20431;-82
2022/09/24 06:15:45;;;;;;;11.52;7.30;;;;;;;;;;7361940;19;20260;-80
2022/09/24 06:18:10;;;;;;;12.45;7.35;;;;;;;;;;7367448;19;20011;-80
2022/09/24 06:20:35;;;;;;;11.23;7.20;;;;;;;;;;7369890;19;20029;-80
2022/09/24 06:23:01;;;;;;;12.27;7.78;;;;;;;;;;7355421;19;20552;-80
2022/09/24 06:25:27;;;;;;;10.48;6.72;;;;;;;;;;7354148;19;20368;-80
2022/09/24 06:27:59;;;;;;;13.45;6.80;;;;;;;;;;7362987;19;20031;-81
2022/09/24 06:30:24;;;;;;;10.13;6.68;;;;;;;;;;7359610;19;20355;-80
2022/09/24 06:32:49;;;;;;;8.83;6.60;;;;;;;;;;7372223;19;20017;-81
2022/09/24 06:35:14;;;;;;;9.85;6.80;;;;;;;;;;7370848;19;20259;-80
2022/09/24 06:37:39;;;;;;;14.18;7.50;;;;;;;;;;7364617;19;20044;-80
2022/09/24 06:40:05;;;;;;;11.65;7.25;;;;;;;;;;7371673;19;20010;-82
2022/09/24 06:42:31;;;;;;;12.68;8.65;;;;;;;;;;7373240;19;20046;-81
2022/09/24 06:44:56;;;;;;;11.43;7.80;;;;;;;;;;7371084;19;20034;-81
2022/09/24 06:47:22;;;;;;;12.63;6.65;;;;;;;;;;7371754;19;20022;-82
2022/09/24 06:49:49;;;;;;;10.07;7.35;;;;;;;;;;7378414;19;20007;-81
2022/09/24 06:52:15;;;;;;;10.07;7.10;;;;;;;;;;7368693;19;20014;-81
2022/09/24 06:54:40;;;;;;;11.52;6.43;;;;;;;;;;7368720;19;20367;-81
2022/09/24 06:57:05;;;;;;;11.10;5.87;;;;;;;;;;7377741;19;20003;-81
2022/09/24 06:59:31;;;;;;;11.05;7.00;;;;;;;;;;7379156;19;20283;-80
2022/09/24 07:01:58;;;;;;;13.07;6.70;;;;;;;;;;7371803;19;20014;-81
2022/09/24 07:04:23;;;;;;;11.52;7.65;;;;;;;;;;7373486;19;20274;-82
2022/09/24 07:09:32;;;;;;;12.95;7.85;;;;;;;;;;7374546;19;20663;-81
2022/09/24 07:12:00;;;;;;;13.30;7.68;;;;;;;;;;7362387;19;20010;-81
2022/09/24 07:14:25;;;;;;;12.18;6.65;;;;;;;;;;7373828;19;20055;-80
2022/09/24 07:16:51;;;;;;;12.10;7.33;;;;;;;;;;7367159;19;20020;-80
2022/09/24 07:19:16;;;;;;;10.40;6.88;;;;;;;;;;7378926;19;20348;-81
2022/09/24 07:21:41;;;;;;;12.47;6.37;;;;;;;;;;7360899;19;20018;-81
2022/09/24 07:24:06;;;;;;;13.13;6.95;;;;;;;;;;7374792;19;20323;-80
2022/09/24 07:26:31;;;;;;;11.93;7.40;;;;;;;;;;7371355;19;20124;-80
2022/09/24 07:28:56;;;;;;;13.53;8.00;;;;;;;;;;7369114;19;20300;-81
2022/09/24 07:31:23;;;;;;;15.50;10.00;;;;;;;;;;7375123;19;20758;-82
2022/09/24 07:33:48;;;;;;;17.70;10.82;;;;;;;;;;7362092;19;20308;-80
2022/09/24 07:36:13;;;;;;;19.67;12.43;;;;;;;;;;7371494;19;20006;-81
2022/09/24 07:38:38;;;;;;;16.60;11.53;;;;;;;;;;7370765;19;20014;-81
2022/09/24 07:41:04;;;;;;;11.60;7.53;;;;;;;;;;7345423;19;20423;-82
2022/09/24 07:43:32;;;;;;;13.02;7.85;;;;;;;;;;7357784;19;20344;-81
2022/09/24 07:45:57;;;;;;;15.05;7.93;;;;;;;;;;7369401;19;20660;-82
2022/09/24 07:48:22;;;;;;;14.03;7.90;;;;;;;;;;7355342;19;20006;-82
2022/09/24 07:50:47;;;;;;;12.02;7.90;;;;;;;;;;7369174;19;20648;-82
2022/09/24 07:53:14;;;;;;;14.83;7.53;;;;;;;;;;7349700;19;20060;-82
2022/09/24 07:55:39;;;;;;;15.15;9.10;;;;;;;;;;7353642;19;20267;-81
2022/09/24 07:58:05;;;;;;;13.95;8.57;;;;;;;;;;7328187;19;20010;-81
2022/09/24 08:00:30;;;;;;;15.25;8.52;;;;;;;;;;7363742;19;20032;-82
2022/09/24 08:02:55;;;;;;;11.73;7.60;;;;;;;;;;7319512;19;20009;-82
2022/09/24 08:05:21;;;;;;;16.88;8.15;;;;;;;;;;7341180;19;20344;-82
2022/09/24 08:07:55;;;;;;;12.20;7.90;;;;;;;;;;7346574;19;20071;-82
2022/09/24 08:10:21;;;;;;;12.75;7.28;;;;;;;;;;7349226;19;20647;-81
2022/09/24 08:12:46;;;;;;;14.38;7.18;;;;;;;;;;7354394;19;20014;-81
2022/09/24 08:15:11;;;;;;;12.75;7.38;;;;;;;;;;7369323;19;20031;-82
2022/09/24 08:17:37;;;;;;;14.80;9.10;;;;;;;;;;7361448;19;20472;-83
2022/09/24 08:20:02;;;;;;;12.93;7.90;;;;;;;;;;7359749;19;20006;-81
2022/09/24 08:22:28;;;;;;;14.05;8.27;;;;;;;;;;7330811;19;22516;-83
2022/09/24 08:24:53;;;;;;;17.30;7.90;;;;;;;;;;7360819;19;20006;-81
2022/09/24 08:27:22;;;;;;;13.82;7.45;;;;;;;;;;7343485;19;20021;-81
2022/09/24 08:29:48;;;;;;;18.48;8.27;;;;;;;;;;7361188;19;20539;-83
2022/09/24 08:32:13;;;;;;;15.80;8.43;;;;;;;;;;7353994;19;19999;-81
2022/09/24 08:34:39;;;;;;;14.98;8.48;;;;;;;;;;7352657;19;20017;-81
2022/09/24 08:37:04;;;;;;;13.45;7.70;;;;;;;;;;7335362;19;20033;-82
2022/09/24 08:39:30;;;;;;;15.50;7.70;;;;;;;;;;7340004;19;20768;-83
2022/09/24 08:41:59;;;;;;;16.05;7.93;;;;;;;;;;7339563;19;20418;-83
2022/09/24 08:47:23;;;;;;;13.68;7.88;;;;;;;;;;7352921;19;20077;-83
2022/09/24 08:49:57;;;;;;;14.55;8.00;;;;;;;;;;7342828;19;21610;-82
2022/09/24 08:52:28;;;;;;;13.80;8.13;;;;;;;;;;7326275;19;20347;-83
2022/09/24 08:54:54;;;;;;;15.65;7.90;;;;;;;;;;7339551;19;20018;-82
2022/09/24 08:57:20;;;;;;;15.40;7.80;;;;;;;;;;7347778;19;20017;-81
2022/09/24 08:59:50;;;;;;;15.10;8.68;;;;;;;;;;7345652;19;20872;-82
2022/09/24 09:02:36;;;;;;;14.52;8.90;;;;;;;;;;7318722;19;21171;-82
2022/09/24 09:05:01;;;;;;;15.38;8.20;;;;;;;;;;7343456;19;20014;-83
2022/09/24 09:07:46;;;;;;;16.05;8.18;;;;;;;;;;7351237;19;21648;-80
2022/09/24 09:10:12;;;;;;;14.70;8.82;;;;;;;;;;7355376;19;20025;-82
2022/09/24 09:12:39;;;;;;;14.18;8.00;;;;;;;;;;7352737;19;20369;-82
2022/09/24 09:15:07;;;;;;;16.83;8.95;;;;;;;;;;7349903;19;20066;-81
2022/09/24 09:17:41;;;;;;;19.92;8.65;;;;;;;;;;7342389;19;20876;-82
2022/09/24 09:20:09;;;;;;;13.90;8.77;;;;;;;;;;7342526;19;20508;-82
2022/09/24 09:22:38;;;;;;;12.52;7.88;;;;;;;;;;7341440;19;20019;-81
2022/09/24 09:25:13;;;;;;;12.07;7.53;;;;;;;;;;7349164;19;20011;-82
2022/09/24 09:27:38;;;;;;;14.98;8.38;;;;;;;;;;7360654;19;20014;-81
2022/09/24 09:30:05;;;;;;;15.15;8.02;;;;;;;;;;7346456;19;20084;-83
2022/09/24 09:32:40;;;;;;;15.25;7.82;;;;;;;;;;7351152;19;20014;-81
2022/09/24 09:35:05;;;;;;;19.00;9.05;;;;;;;;;;7345233;19;20135;-82
2022/09/24 09:37:49;;;;;;;16.73;7.88;;;;;;;;;;7317985;19;20451;-83
2022/09/24 09:40:28;;;;;;;14.82;7.47;;;;;;;;;;7347623;19;20029;-83
2022/09/24 09:43:07;;;;;;;20.38;8.25;;;;;;;;;;7335596;19;20025;-83
2022/09/24 09:45:38;;;;;;;14.73;8.93;;;;;;;;;;7337224;19;20033;-82
2022/09/24 09:48:03;;;;;;;16.08;8.18;;;;;;;;;;7348449;19;20041;-82
2022/09/24 09:50:37;;;;;;;16.25;9.32;;;;;;;;;;7332419;19;21324;-83
2022/09/24 09:53:06;;;;;;;13.82;8.55;;;;;;;;;;7343121;19;20583;-83
2022/09/24 09:55:33;;;;;;;15.38;7.80;;;;;;;;;;7366050;19;20085;-82
2022/09/24 09:58:18;;;;;;;14.88;8.45;;;;;;;;;;7363558;19;20119;-84
2022/09/24 10:00:48;;;;;;;14.85;8.82;;;;;;;;;;7358518;19;20467;-84
2022/09/24 10:03:46;;;;;;;15.40;8.80;;;;;;;;;;7351408;19;20494;-82
2022/09/24 10:06:12;;;;;;;18.05;8.27;;;;;;;;;;7323464;19;20472;-83
2022/09/24 10:08:39;;;;;;;14.40;8.02;;;;;;;;;;7366278;19;20032;-84
2022/09/24 10:11:06;;;;;;;13.10;8.27;;;;;;;;;;7324705;19;20376;-83
2022/09/24 10:13:31;;;;;;;13.57;8.23;;;;;;;;;;7362792;19;20015;-82
2022/09/24 10:16:02;;;;;;;13.90;7.55;;;;;;;;;;7323671;19;20017;-83
2022/09/24 10:18:31;;;;;;;14.15;7.40;;;;;;;;;;7353711;19;20010;-83
2022/09/24 10:20:57;;;;;;;13.93;8.20;;;;;;;;;;7362054;19;20628;-82
2022/09/24 10:23:32;;;;;;;15.57;7.75;;;;;;;;;;7344406;19;20045;-82
2022/09/24 10:25:59;;;;;;;23.60;11.38;;;;;;;;;;7348304;19;20025;-82
2022/09/24 10:31:29;;;;;;;11.82;7.13;;;;;;;;;;7357153;19;20021;-81
2022/09/24 10:33:55;;;;;;;21.50;8.98;;;;;;;;;;7350630;19;20033;-81
2022/09/24 10:36:22;;;;;;;23.15;8.60;;;;;;;;;;7351713;19;20015;-81
2022/09/24 10:38:48;;;;;;;18.77;8.38;;;;;;;;;;7344447;19;20424;-81
2022/09/24 10:41:14;;;;;;;34.20;13.40;;;;;;;;;;7359326;19;20002;-81
2022/09/24 10:43:48;;;;;;;31.77;11.30;;;;;;;;;;7361584;19;20474;-82
2022/09/24 10:46:22;;;;;;;19.05;9.27;;;;;;;;;;7340148;19;20022;-81
2022/09/24 10:48:57;;;;;;;11.95;8.30;;;;;;;;;;7350479;19;20007;-82
2022/09/24 10:51:29;;;;;;;14.10;7.53;;;;;;;;;;7320405;19;20006;-82
2022/09/24 10:54:03;;;;;;;14.00;8.10;;;;;;;;;;7353669;19;20006;-83
2022/09/24 10:56:43;;;;;;;18.35;7.47;;;;;;;;;;7354361;19;20010;-82
2022/09/24 10:59:27;;;;;;;13.07;7.47;;;;;;;;;;7366354;19;20021;-82
2022/09/24 11:01:52;;;;;;;;;;;;;;;;;;7359147;19;20064;-82
2022/09/24 11:04:21;;;;;;;10.40;6.35;;;;;;;;;;7354093;19;20343;-83
2022/09/24 11:06:49;;;;;;;13.60;6.85;;;;;;;;;;7344399;19;20473;-82
2022/09/24 11:09:19;;;;;;;12.93;7.30;;;;;;;;;;7360041;19;20002;-82
2022/09/24 11:11:50;;;;;;;17.05;9.05;;;;;;;;;;7363223;19;20006;-83
2022/09/24 11:14:15;;;;;;;14.32;9.10;;;;;;;;;;7363840;19;20732;-82
2022/09/24 11:17:03;;;;;;;16.07;9.27;;;;;;;;;;7351740;19;20026;-82
2022/09/24 11:19:39;;;;;;;16.80;10.10;;;;;;;;;;7360932;19;20283;-82
2022/09/24 11:22:13;;;;;;;17.00;10.18;;;;;;;;;;7334277;19;20348;-83
2022/09/24 11:24:47;;;;;;;15.13;9.32;;;;;;;;;;7343645;19;20078;-83
2022/09/24 11:27:29;;;;;;;13.80;8.65;;;;;;;;;;7350643;19;20338;-83
2022/09/24 11:29:57;;;;;;;11.70;7.53;;;;;;;;;;7353424;19;20007;-83
2022/09/24 11:32:25;;;;;;;12.65;7.38;;;;;;;;;;7366350;19;20445;-82
2022/09/24 11:35:02;;;;;;;14.52;7.97;;;;;;;;;;7361345;19;20031;-82
2022/09/24 11:37:49;;;;;;;12.57;7.63;;;;;;;;;;7362588;19;20364;-83
2022/09/24 11:40:28;;;;;;;15.15;8.15;;;;;;;;;;7321488;19;20818;-82
2022/09/24 11:42:53;;;;;;;10.95;7.78;;;;;;;;;;7356961;19;20119;-82
2022/09/24 11:45:40;;;;;;;13.68;8.07;;;;;;;;;;7357226;19;20062;-82
2022/09/24 11:48:13;;;;;;;12.60;6.93;;;;;;;;;;7378326;19;20010;-84
2022/09/24 11:50:49;;;;;;;12.77;8.10;;;;;;;;;;7369492;19;20014;-83
2022/09/24 11:53:28;;;;;;;13.80;7.45;;;;;;;;;;7370925;19;20507;-83
2022/09/24 11:55:58;;;;;;;12.73;7.72;;;;;;;;;;7382864;19;20423;-82
2022/09/24 11:58:45;;;;;;;12.90;7.65;;;;;;;;;;7374968;19;20029;-81
2022/09/24 12:01:16;;;;;;;11.35;8.07;;;;;;;;;;7379823;19;20021;-82
2022/09/24 12:04:00;;;;;;;13.35;8.00;;;;;;;;;;7380264;19;20565;-81
2022/09/24 12:06:53;;;;;;;19.90;8.52;;;;;;;;;;7381942;19;20015;-82
2022/09/24 12:09:33;;;;;;;13.68;7.80;;;;;;;;;;7380049;19;20013;-82
2022/09/24 12:12:02;;;;;;;15.75;8.73;;;;;;;;;;7385569;19;20596;-81
2022/09/24 12:14:36;;;;;;;12.77;8.00;;;;;;;;;;7386757;19;20014;-82
2022/09/24 12:17:08;;;;;;;13.88;7.25;;;;;;;;;;7368594;19;20047;-81
2022/09/24 12:19:38;;;;;;;15.82;9.45;;;;;;;;;;7366620;19;20010;-84
2022/09/24 12:22:04;;;;;;;14.82;9.20;;;;;;;;;;7363327;19;20017;-83
2022/09/24 12:24:38;;;;;;;14.57;8.68;;;;;;;;;;7363473;19;20010;-80
2022/09/24 12:27:03;;;;;;;;;;;;;;;;;;7380362;19;20017;-82
2022/09/24 12:35:03;;;;;;;15.52;8.77;;;;;;;;;;7355688;19;20030;-80
2022/09/24 12:37:32;;;;;;;14.40;9.50;;;;;;;;;;7356660;19;20022;-82
2022/09/24 12:40:13;;;;;;;16.48;9.43;;;;;;;;;;7371580;19;20014;-79
2022/09/24 12:42:43;;;;;;;19.80;10.40;;;;;;;;;;7370603;19;20014;-81
2022/09/24 12:45:12;;;;;;;24.33;9.98;;;;;;;;;;7354383;19;20324;-82
2022/09/24 12:47:44;;;;;;;12.88;9.63;;;;;;;;;;7367917;19;20109;-83
2022/09/24 12:50:20;;;;;;;16.10;9.93;;;;;;;;;;7358750;19;20013;-80
2022/09/24 12:52:46;;;;;;;13.90;9.70;;;;;;;;;;7358312;19;20027;-81
2022/09/24 12:55:22;;;;;;;16.05;9.85;;;;;;;;;;7362648;19;20014;-80
2022/09/24 12:57:52;;;;;;;14.32;9.75;;;;;;;;;;7367384;19;20617;-82
2022/09/24 13:00:37;;;;;;;19.55;10.70;;;;;;;;;;7374413;19;20070;-80
2022/09/24 13:03:02;;;;;;;16.73;10.23;;;;;;;;;;7368606;19;20010;-83
2022/09/24 13:05:31;;;;;;;21.90;11.80;;;;;;;;;;7378694;19;20415;-80
2022/09/24 13:07:57;;;;;;;17.92;11.48;;;;;;;;;;7368371;19;20007;-81
2022/09/24 13:10:23;;;;;;;16.37;9.73;;;;;;;;;;7391607;19;20439;-82
2022/09/24 13:12:49;;;;;;;18.33;10.40;;;;;;;;;;7389240;19;20295;-80
2022/09/24 13:15:30;;;;;;;17.10;11.27;;;;;;;;;;7378230;19;20010;-82
2022/09/24 13:17:59;;;;;;;17.98;11.02;;;;;;;;;;7387060;19;20513;-80
2022/09/24 13:20:24;;;;;;;16.42;11.57;;;;;;;;;;7391449;19;20007;-83
2022/09/24 13:22:57;;;;;;;18.65;10.68;;;;;;;;;;7380206;19;20014;-82
2022/09/24 13:25:23;;;;;;;16.65;9.82;;;;;;;;;;7385705;19;20006;-82
2022/09/24 13:27:56;;;;;;;15.63;10.18;;;;;;;;;;7374896;19;20007;-84
2022/09/24 13:30:37;;;;;;;15.55;8.80;;;;;;;;;;7375922;19;20006;-80
2022/09/24 13:33:06;;;;;;;19.80;9.98;;;;;;;;;;7377864;19;20010;-82
2022/09/24 13:35:41;;;;;;;19.23;12.80;;;;;;;;;;7347090;19;20003;-79
2022/09/24 13:38:12;;;;;;;15.32;9.52;;;;;;;;;;7370514;19;20046;-81
2022/09/24 13:40:39;;;;;;;12.65;8.70;;;;;;;;;;7354876;19;20047;-80
2022/09/24 13:43:12;;;;;;;16.40;9.07;;;;;;;;;;7373378;19;20010;-82
2022/09/24 13:45:40;;;;;;;14.50;8.43;;;;;;;;;;7378945;19;20006;-79
2022/09/24 13:48:12;;;;;;;14.48;8.57;;;;;;;;;;7337126;19;22014;-82
2022/09/24 13:50:47;;;;;;;15.07;8.02;;;;;;;;;;7343383;19;20010;-81
2022/09/24 13:53:16;;;;;;;15.52;9.55;;;;;;;;;;7369446;19;20007;-80
2022/09/24 13:55:45;;;;;;;14.25;9.80;;;;;;;;;;7366498;19;20010;-82
2022/09/24 13:58:31;;;;;;;21.25;11.02;;;;;;;;;;7358978;19;20010;-82
2022/09/24 14:00:58;;;;;;;18.00;9.73;;;;;;;;;;7332849;19;20250;-81
2022/09/24 14:03:34;;;;;;;19.77;12.10;;;;;;;;;;7358486;19;20016;-83
2022/09/24 14:06:00;;;;;;;18.50;11.88;;;;;;;;;;7352759;19;20017;-83
2022/09/24 14:08:26;;;;;;;16.15;10.30;;;;;;;;;;7360721;19;20149;-81
2022/09/24 14:11:02;;;;;;;12.50;8.57;;;;;;;;;;7364369;19;20014;-80
2022/09/24 14:13:27;;;;;;;18.60;11.07;;;;;;;;;;7358291;19;20017;-83
2022/09/24 14:15:53;;;;;;;16.97;10.70;;;;;;;;;;7365731;19;20006;-78
2022/09/24 14:18:19;;;;;;;14.18;10.38;;;;;;;;;;7371478;19;20275;-81
2022/09/24 14:20:48;;;;;;;16.48;10.65;;;;;;;;;;7358763;19;20007;-82
2022/09/24 14:23:16;;;;;;;16.60;9.70;;;;;;;;;;7363258;19;20022;-78
2022/09/24 14:25:42;;;;;;;17.05;9.80;;;;;;;;;;7361933;19;20843;-81
2022/09/24 14:28:10;;;;;;;14.00;9.13;;;;;;;;;;7352641;19;20006;-82
2022/09/24 14:30:36;;;;;;;18.10;10.00;;;;;;;;;;7363533;19;20463;-80
2022/09/24 14:33:03;;;;;;;20.60;11.05;;;;;;;;;;7366356;19;20006;-80
2022/09/24 14:35:33;;;;;;;15.82;11.07;;;;;;;;;;7356407;19;20010;-82
2022/09/24 14:38:11;;;;;;;17.40;11.10;;;;;;;;;;7365348;19;20007;-80
2022/09/24 14:40:41;;;;;;;14.15;10.38;;;;;;;;;;7364896;19;20502;-81
2022/09/24 14:43:13;;;;;;;13.98;11.02;;;;;;;;;;7361881;19;20439;-81
2022/09/24 14:45:39;;;;;;;24.52;11.25;;;;;;;;;;7357230;19;20371;-81
2022/09/24 14:48:25;;;;;;;16.95;11.98;;;;;;;;;;7366475;19;20017;-80
2022/09/24 14:50:50;;;;;;;19.25;13.00;;;;;;;;;;7368266;19;20015;-80
2022/09/24 14:53:21;;;;;;;17.63;11.80;;;;;;;;;;7354952;19;20022;-82
2022/09/24 14:55:48;;;;;;;16.65;10.13;;;;;;;;;;7354393;19;20272;-80
2022/09/24 14:58:29;;;;;;;14.30;9.85;;;;;;;;;;7317098;19;20122;-83